Time;durP1;ratioP1;P1;durP2;ratioP2;P2;SDS_P1;SDS_P2;PMS_P1;PMS_P2;Temp;Humidity;BMP_temperature;BMP_pressure;BME280_temperature;BME280_humidity;BME280_pressure;Samples;Min_cycle;Max_cycle;Signal;HPM_P1;HPM_P2
2023/01/12 00:01:16;;;;;;;0.75;0.75;;;;;;;4.66;100.00;97925.88;4993113;28;20472;-78
2023/01/12 00:03:44;;;;;;;3.38;1.33;;;;;;;4.71;100.00;97923.94;5006276;28;20033;-78
2023/01/12 00:06:10;;;;;;;1.40;1.30;;;;;;;4.55;100.00;97903.31;5014052;28;20029;-77
2023/01/12 00:08:36;;;;;;;0.80;0.80;;;;;;;4.56;100.00;97910.34;4990753;28;20041;-78
2023/01/12 00:11:02;;;;;;;1.40;1.23;;;;;;;4.56;100.00;97923.56;4999007;28;20025;-77
2023/01/12 00:13:31;;;;;;;1.40;1.25;;;;;;;4.54;100.00;97921.00;5015139;28;20033;-77
2023/01/12 00:18:42;;;;;;;4.63;1.48;;;;;;;4.61;100.00;97935.78;5018223;28;20434;-77
2023/01/12 00:21:08;;;;;;;1.30;1.20;;;;;;;4.59;100.00;97932.28;4998537;28;20120;-77
2023/01/12 00:23:34;;;;;;;1.65;1.50;;;;;;;4.60;100.00;97941.97;4998739;28;20168;-77
2023/01/12 00:25:59;;;;;;;2.50;1.00;;;;;;;4.56;100.00;97931.53;5015120;28;20029;-76
2023/01/12 00:28:25;;;;;;;1.13;1.02;;;;;;;4.57;100.00;97931.50;4998653;28;20408;-78
2023/01/12 00:30:50;;;;;;;1.27;1.15;;;;;;;4.51;100.00;97934.34;4998581;28;20051;-78
2023/01/12 00:33:16;;;;;;;0.65;0.65;;;;;;;4.50;100.00;97927.28;4993302;28;20036;-78
2023/01/12 00:35:41;;;;;;;10.48;2.05;;;;;;;4.52;100.00;97937.84;4998602;28;20025;-79
2023/01/12 00:38:07;;;;;;;1.85;1.25;;;;;;;4.38;100.00;97919.75;4998301;28;20485;-78
2023/01/12 00:40:35;;;;;;;2.10;1.50;;;;;;;4.43;100.00;97939.00;5014968;28;20047;-78
2023/01/12 00:45:49;;;;;;;2.45;2.25;;;;;;;4.56;100.00;97945.63;4994350;28;20111;-78
2023/01/12 00:48:14;;;;;;;2.97;1.33;;;;;;;4.47;100.00;97930.03;4988306;28;20025;-78
2023/01/12 00:50:40;;;;;;;0.43;0.43;;;;;;;4.52;100.00;97941.38;4986940;28;20038;-77
2023/01/12 00:53:05;;;;;;;3.22;1.63;;;;;;;4.51;100.00;97941.41;4995777;28;20027;-77
2023/01/12 00:55:32;;;;;;;1.40;1.30;;;;;;;4.46;100.00;97940.69;4964488;28;20489;-78
2023/01/12 00:57:58;;;;;;;2.83;1.65;;;;;;;4.41;100.00;97953.19;4978766;28;20108;-77
2023/01/12 01:00:23;;;;;;;1.80;1.45;;;;;;;4.46;100.00;97954.78;4978531;28;20417;-78
2023/01/12 01:02:49;;;;;;;0.57;0.57;;;;;;;4.52;100.00;97953.75;4991520;28;20093;-78
2023/01/12 01:05:16;;;;;;;2.58;1.98;;;;;;;4.57;100.00;97950.03;4998005;28;20037;-79
2023/01/12 01:07:42;;;;;;;2.03;1.75;;;;;;;4.53;100.00;97943.09;5014362;28;20036;-77
2023/01/12 01:10:09;;;;;;;3.08;1.80;;;;;;;4.56;100.00;97935.03;5014211;28;20033;-77
2023/01/12 01:12:35;;;;;;;2.80;2.15;;;;;;;4.48;100.00;97937.09;4994531;28;20026;-78
2023/01/12 01:15:01;;;;;;;1.52;1.15;;;;;;;4.54;100.00;97949.25;4992623;28;20421;-77
2023/01/12 01:17:27;;;;;;;0.88;0.88;;;;;;;4.52;100.00;97946.69;5022189;28;20029;-77
2023/01/12 01:19:53;;;;;;;1.70;0.85;;;;;;;4.58;100.00;97938.53;4998181;28;20057;-77
2023/01/12 01:22:19;;;;;;;1.25;1.20;;;;;;;4.61;100.00;97935.78;4984155;28;20067;-77
2023/01/12 01:24:46;;;;;;;1.67;1.33;;;;;;;4.59;100.00;97934.94;5006190;28;20461;-79
2023/01/12 01:27:12;;;;;;;1.27;1.17;;;;;;;4.64;100.00;97945.41;4989657;28;20184;-78
2023/01/12 01:29:37;;;;;;;1.27;1.17;;;;;;;4.53;100.00;97921.91;5000298;28;20109;-78
2023/01/12 01:32:03;;;;;;;0.55;0.55;;;;;;;4.49;100.00;97936.16;4995586;28;20033;-78
2023/01/12 01:34:29;;;;;;;3.35;2.05;;;;;;;4.53;100.00;97940.44;4990410;28;20038;-78
2023/01/12 01:36:54;;;;;;;0.55;0.55;;;;;;;4.61;100.00;97935.78;4994261;28;20436;-79
2023/01/12 01:39:20;;;;;;;2.17;1.98;;;;;;;4.61;100.00;97930.50;4997172;28;20501;-78
2023/01/12 01:41:46;;;;;;;0.70;0.70;;;;;;;4.72;100.00;97935.41;4988709;28;20033;-78
2023/01/12 01:44:30;;;;;;;1.70;1.40;;;;;;;4.70;100.00;97935.50;4978358;28;20034;-78
2023/01/12 01:47:01;;;;;;;2.53;1.67;;;;;;;4.58;100.00;97932.38;4994346;28;20030;-77
2023/01/12 01:49:36;;;;;;;0.98;0.82;;;;;;;4.63;100.00;97938.38;4980365;28;20506;-77
2023/01/12 01:52:06;;;;;;;1.08;0.90;;;;;;;4.61;100.00;97929.63;5013872;28;20525;-78
2023/01/12 01:54:35;;;;;;;0.55;0.55;;;;;;;4.59;100.00;97932.28;4997636;28;20048;-77
2023/01/12 01:57:01;;;;;;;0.88;0.65;;;;;;;4.68;100.00;97942.59;4994001;28;20083;-79
2023/01/12 01:59:31;;;;;;;0.43;0.43;;;;;;;4.68;100.00;97926.69;5010495;28;20053;-78
2023/01/12 02:01:57;;;;;;;1.58;1.25;;;;;;;4.71;100.00;97942.50;5010416;28;20022;-78
2023/01/12 02:04:24;;;;;;;1.70;1.60;;;;;;;4.63;100.00;97933.06;4997227;28;20124;-78
2023/01/12 02:06:51;;;;;;;5.72;1.88;;;;;;;4.66;100.00;97943.56;4997577;28;20029;-78
2023/01/12 02:09:25;;;;;;;0.88;0.88;;;;;;;4.62;100.00;97940.16;4997669;28;20385;-78
2023/01/12 02:17:38;;;;;;;3.83;2.55;;;;;;;4.69;100.00;97954.94;5016717;28;20412;-78
2023/01/12 02:20:25;;;;;;;0.82;0.77;;;;;;;4.68;100.00;97954.97;5010340;28;20049;-78
2023/01/12 02:23:06;;;;;;;0.90;0.85;;;;;;;4.59;100.00;97963.22;4997172;28;20037;-78
2023/01/12 02:26:08;;;;;;;0.95;0.95;;;;;;;4.65;100.00;97966.53;5013518;28;20025;-77
2023/01/12 02:28:43;;;;;;;;;;;;;;;4.47;100.00;97959.16;5013947;28;20117;-76
2023/01/12 02:31:39;;;;;;;0.68;0.68;;;;;;;4.46;100.00;97957.44;5016747;28;20339;-78
2023/01/12 02:34:08;;;;;;;3.08;1.58;;;;;;;4.45;100.00;97957.50;5016981;28;20477;-77
2023/01/12 02:36:49;;;;;;;1.35;1.25;;;;;;;4.41;100.00;97948.78;5017241;28;20120;-78
2023/01/12 02:39:22;;;;;;;1.48;1.38;;;;;;;4.42;100.00;97950.50;4992780;28;20029;-76
2023/01/12 02:45:14;;;;;;;1.50;1.38;;;;;;;4.42;100.00;97950.50;5019778;28;20109;-79
2023/01/12 02:47:49;;;;;;;0.20;0.20;;;;;;;4.50;100.00;97961.72;5013542;28;20509;-79
2023/01/12 02:51:13;;;;;;;1.17;1.10;;;;;;;4.57;100.00;97963.28;5016931;28;20060;-81
2023/01/12 02:56:52;;;;;;;1.20;1.02;;;;;;;4.12;100.00;97915.25;4923737;29;20036;-77
2023/01/12 02:59:36;;;;;;;1.35;0.98;;;;;;;4.21;100.00;97945.88;5002561;28;20037;-81
2023/01/12 03:02:09;;;;;;;1.33;0.68;;;;;;;4.16;100.00;97947.78;4997338;28;20511;-80
2023/01/12 03:04:34;;;;;;;;;;;;;;;4.21;100.00;97957.34;4981343;28;20037;-77
2023/01/12 03:06:59;;;;;;;0.50;0.50;;;;;;;4.28;100.00;97958.88;4980860;28;19913;-78
2023/01/12 03:09:58;;;;;;;1.15;1.05;;;;;;;4.37;100.00;97957.72;4996905;28;20185;-77
2023/01/12 03:12:36;;;;;;;0.50;0.50;;;;;;;4.43;100.00;97956.69;4947510;28;20034;-78
2023/01/12 03:15:05;;;;;;;2.15;1.63;;;;;;;4.39;100.00;97947.97;5011660;28;20034;-77
2023/01/12 03:17:58;;;;;;;0.60;0.60;;;;;;;4.51;100.00;97949.34;5016817;28;20374;-78
2023/01/12 03:20:32;;;;;;;1.55;1.45;;;;;;;4.56;100.00;97943.00;4971083;28;20073;-78
2023/01/12 03:23:02;;;;;;;3.33;1.20;;;;;;;4.54;100.00;97928.06;4972640;28;20099;-77
2023/01/12 03:25:30;;;;;;;2.15;1.42;;;;;;;4.42;100.00;97924.03;5000344;28;20029;-77
2023/01/12 03:27:57;;;;;;;1.33;1.05;;;;;;;4.46;100.00;97936.25;4991923;28;20033;-77
2023/01/12 03:30:29;;;;;;;1.23;1.20;;;;;;;4.28;100.00;97910.34;4999795;28;20028;-77
2023/01/12 03:32:55;;;;;;;5.20;1.85;;;;;;;4.40;100.00;97930.31;4991848;28;20031;-79
2023/01/12 03:35:24;;;;;;;2.13;1.95;;;;;;;4.52;100.00;97935.22;4999794;28;20175;-79
2023/01/12 03:38:23;;;;;;;1.38;1.27;;;;;;;4.46;100.00;97928.28;4999825;28;20064;-79
2023/01/12 03:41:12;;;;;;;0.93;0.93;;;;;;;4.37;100.00;97934.75;4994829;28;20169;-79
2023/01/12 03:43:41;;;;;;;0.80;0.80;;;;;;;4.32;100.00;97933.16;4985937;28;20038;-79
2023/01/12 03:46:11;;;;;;;0.93;0.93;;;;;;;4.22;100.00;97927.28;4999627;28;20124;-79
2023/01/12 03:48:38;;;;;;;0.40;0.40;;;;;;;4.20;100.00;97937.06;5000939;28;20510;-78
2023/01/12 03:51:24;;;;;;;2.92;2.00;;;;;;;4.27;100.00;97945.69;4983007;28;20054;-77
2023/01/12 03:53:51;;;;;;;0.80;0.73;;;;;;;4.36;100.00;97945.41;4988766;28;20042;-78
2023/01/12 03:56:19;;;;;;;2.45;2.05;;;;;;;4.43;100.00;97946.09;4989736;28;20040;-78
2023/01/12 03:58:45;;;;;;;1.98;1.48;;;;;;;4.28;100.00;97936.81;4999346;28;20135;-79
2023/01/12 04:01:11;;;;;;;3.45;1.73;;;;;;;4.35;100.00;97941.03;5009217;28;20037;-78
2023/01/12 04:03:36;;;;;;;0.73;0.73;;;;;;;4.40;100.00;97939.09;4989159;28;21646;-77
2023/01/12 04:06:02;;;;;;;2.15;1.98;;;;;;;4.41;100.00;97946.13;4983361;28;20037;-78
2023/01/12 04:08:27;;;;;;;1.60;1.50;;;;;;;4.43;100.00;97935.50;5005479;28;20038;-78
2023/01/12 04:10:53;;;;;;;1.85;1.75;;;;;;;4.55;100.00;97941.28;5011036;28;20030;-77
2023/01/12 04:13:19;;;;;;;1.05;0.95;;;;;;;4.61;100.00;97938.44;4987970;28;20021;-78
2023/01/12 04:15:46;;;;;;;2.90;1.67;;;;;;;4.68;100.00;97932.00;4995747;28;20040;-77
2023/01/12 04:18:11;;;;;;;3.42;2.47;;;;;;;4.71;100.00;97929.25;4998597;28;20033;-77
2023/01/12 04:20:38;;;;;;;3.05;2.13;;;;;;;4.76;100.00;97931.75;4998583;28;20030;-78
2023/01/12 04:23:05;;;;;;;6.15;2.50;;;;;;;4.74;100.00;97925.63;4998825;28;20472;-78
2023/01/12 04:25:31;;;;;;;2.83;2.17;;;;;;;4.75;100.00;97927.38;4987824;28;20041;-78
2023/01/12 04:28:01;;;;;;;4.28;2.47;;;;;;;4.75;100.00;97928.25;4984689;28;20040;-78
2023/01/12 04:30:27;;;;;;;4.30;3.90;;;;;;;4.61;100.00;97914.59;4979496;28;20040;-77
2023/01/12 04:32:54;;;;;;;2.10;1.90;;;;;;;4.74;100.00;97936.22;4992657;28;20096;-78
2023/01/12 04:35:20;;;;;;;2.42;2.17;;;;;;;4.70;100.00;97940.78;4995435;28;20045;-79
2023/01/12 04:37:46;;;;;;;3.03;1.77;;;;;;;4.66;100.00;97933.84;4993734;28;20054;-78
2023/01/12 04:40:13;;;;;;;2.47;1.52;;;;;;;4.69;100.00;97931.09;4993086;28;20037;-78
2023/01/12 04:43:09;;;;;;;9.18;2.33;;;;;;;4.62;100.00;97934.84;5005651;28;20026;-78
2023/01/12 04:45:38;;;;;;;2.72;1.90;;;;;;;4.72;100.00;97948.66;4991613;28;20517;-78
2023/01/12 04:48:09;;;;;;;1.60;1.50;;;;;;;4.63;100.00;97943.66;4978523;28;20464;-77
2023/01/12 04:50:34;;;;;;;4.07;2.67;;;;;;;4.60;100.00;97943.75;5011683;28;20049;-78
2023/01/12 04:53:01;;;;;;;3.85;2.92;;;;;;;4.54;100.00;97938.66;5013750;28;20492;-78
2023/01/12 04:55:27;;;;;;;4.32;2.15;;;;;;;4.48;100.00;97955.63;4997903;28;20036;-77
2023/01/12 04:57:53;;;;;;;2.70;2.22;;;;;;;4.38;100.00;97951.50;4997618;28;20025;-78
2023/01/12 05:00:19;;;;;;;2.30;1.20;;;;;;;4.41;100.00;97961.13;5002586;28;20503;-79
2023/01/12 05:02:44;;;;;;;4.15;2.25;;;;;;;4.27;100.00;97946.56;5013911;28;20401;-78
2023/01/12 05:05:10;;;;;;;10.20;3.63;;;;;;;4.40;100.00;97972.66;4997689;28;20029;-78
2023/01/12 05:07:36;;;;;;;3.63;2.28;;;;;;;4.32;100.00;97970.25;5014057;28;20060;-78
2023/01/12 05:12:45;;;;;;;1.75;1.23;;;;;;;4.37;100.00;97977.13;5016203;28;20032;-76
2023/01/12 05:15:11;;;;;;;1.77;1.35;;;;;;;4.40;100.00;97984.09;4997255;28;20033;-77
2023/01/12 05:17:36;;;;;;;3.78;2.33;;;;;;;4.41;100.00;97983.19;4997400;28;20029;-79
2023/01/12 05:20:02;;;;;;;1.80;1.52;;;;;;;4.41;100.00;97990.28;5011464;28;20048;-78
2023/01/12 05:22:27;;;;;;;1.55;1.27;;;;;;;4.21;100.00;97982.94;4994733;28;20128;-78
2023/01/12 05:24:53;;;;;;;4.10;2.55;;;;;;;4.30;100.00;97985.31;5011401;28;20033;-79
2023/01/12 05:27:18;;;;;;;3.28;1.88;;;;;;;4.41;100.00;97984.97;4996124;28;20473;-78
2023/01/12 05:29:44;;;;;;;1.45;1.35;;;;;;;4.38;100.00;97984.16;4996932;28;20040;-79
2023/01/12 05:32:09;;;;;;;2.08;1.85;;;;;;;4.38;100.00;97980.66;5013357;28;20559;-78
2023/01/12 05:34:35;;;;;;;5.10;3.30;;;;;;;4.45;100.00;97990.16;4997218;28;20040;-78
2023/01/12 05:37:01;;;;;;;4.70;3.55;;;;;;;4.57;100.00;97996.84;4996628;28;20021;-78
2023/01/12 05:39:27;;;;;;;1.85;1.75;;;;;;;4.55;100.00;97996.91;5013577;28;20022;-79
2023/01/12 05:44:36;;;;;;;6.75;4.70;;;;;;;4.33;100.00;97987.88;5016289;28;20063;-78
2023/01/12 05:47:02;;;;;;;7.97;3.03;;;;;;;4.37;100.00;97997.44;5013141;28;20056;-77
2023/01/12 05:49:27;;;;;;;4.00;1.92;;;;;;;4.43;100.00;98005.19;5013522;28;20060;-78
2023/01/12 05:51:53;;;;;;;3.03;2.58;;;;;;;4.50;100.00;98014.69;4988783;28;20038;-78
2023/01/12 05:54:18;;;;;;;4.28;2.45;;;;;;;4.29;100.00;97999.47;4987773;28;20033;-77
2023/01/12 05:56:44;;;;;;;5.05;3.40;;;;;;;4.23;100.00;98013.75;4982001;28;20394;-77
2023/01/12 05:59:09;;;;;;;1.65;1.50;;;;;;;4.32;100.00;98009.97;4996788;28;20471;-77
2023/01/12 06:01:35;;;;;;;4.63;3.67;;;;;;;4.35;100.00;98028.41;4985772;28;20446;-78
2023/01/12 06:04:01;;;;;;;6.40;3.05;;;;;;;4.31;100.00;98016.16;5005397;28;20091;-78
2023/01/12 06:06:30;;;;;;;3.63;2.40;;;;;;;4.38;100.00;98033.59;4990182;28;20485;-79
2023/01/12 06:08:58;;;;;;;2.15;2.00;;;;;;;4.12;100.00;98002.59;5006554;28;20044;-79
2023/01/12 06:14:08;;;;;;;10.63;3.60;;;;;;;4.47;100.00;98040.41;5031405;28;20112;-78
2023/01/12 06:16:37;;;;;;;1.58;1.48;;;;;;;4.45;100.00;98039.59;4996791;28;20041;-79
2023/01/12 06:19:02;;;;;;;2.72;1.15;;;;;;;4.38;100.00;98036.25;5013614;28;20026;-79
2023/01/12 06:21:28;;;;;;;7.30;4.07;;;;;;;4.46;100.00;98047.47;5005252;28;20453;-78
2023/01/12 06:23:53;;;;;;;4.28;3.15;;;;;;;4.45;100.00;98051.06;4988924;28;20029;-77
2023/01/12 06:26:19;;;;;;;4.97;4.32;;;;;;;4.41;100.00;98037.94;4994671;28;20021;-79
2023/01/12 06:28:45;;;;;;;5.40;3.58;;;;;;;4.31;100.00;98039.97;5008328;28;20521;-76
2023/01/12 06:31:12;;;;;;;1.75;1.65;;;;;;;4.27;100.00;98022.47;4997271;28;20030;-78
2023/01/12 06:33:38;;;;;;;6.72;1.50;;;;;;;4.31;100.00;98032.03;4992189;28;20017;-78
2023/01/12 06:36:04;;;;;;;2.72;2.22;;;;;;;4.32;100.00;98033.78;5006652;28;20507;-77
2023/01/12 06:38:31;;;;;;;3.13;2.80;;;;;;;4.28;100.00;98018.88;4990106;28;20030;-77
2023/01/12 06:41:05;;;;;;;2.33;1.30;;;;;;;4.36;100.00;98032.78;4982030;28;20405;-78
2023/01/12 06:43:31;;;;;;;3.67;1.98;;;;;;;4.42;100.00;98034.38;4993751;28;20094;-78
2023/01/12 06:45:56;;;;;;;1.77;1.67;;;;;;;4.44;100.00;98022.81;5007622;28;20102;-79
2023/01/12 06:48:24;;;;;;;2.05;1.65;;;;;;;4.32;100.00;98013.47;4980663;28;20026;-78
2023/01/12 06:51:04;;;;;;;1.15;0.85;;;;;;;4.29;100.00;98012.69;4996501;28;20049;-79
2023/01/12 06:53:29;;;;;;;1.90;1.55;;;;;;;4.23;100.00;98011.09;5017659;28;20032;-79
2023/01/12 06:55:55;;;;;;;1.98;1.48;;;;;;;4.14;100.00;98015.78;4999961;28;20037;-77
2023/01/12 06:58:20;;;;;;;5.97;2.65;;;;;;;4.16;100.00;98016.59;5000282;28;20035;-77
2023/01/12 07:00:46;;;;;;;3.53;2.42;;;;;;;4.11;100.00;98013.25;5016368;28;20079;-78
2023/01/12 07:03:16;;;;;;;3.70;2.13;;;;;;;4.20;100.00;98018.25;4999954;28;20030;-77
2023/01/12 07:05:42;;;;;;;1.85;1.75;;;;;;;4.23;100.00;98024.34;4999860;28;20048;-78
2023/01/12 07:08:07;;;;;;;0.80;0.80;;;;;;;4.25;100.00;98016.34;4999679;28;20501;-78
2023/01/12 07:10:33;;;;;;;1.98;1.73;;;;;;;4.30;100.00;98006.50;4999888;28;20112;-78
2023/01/12 07:12:59;;;;;;;3.85;1.67;;;;;;;4.35;100.00;98004.56;5015941;28;20401;-79
2023/01/12 07:15:25;;;;;;;0.77;0.65;;;;;;;4.30;100.00;98007.38;4999140;28;20087;-78
2023/01/12 07:17:55;;;;;;;0.90;0.90;;;;;;;4.37;100.00;98005.38;4999316;28;20022;-76
2023/01/12 07:20:21;;;;;;;1.02;1.02;;;;;;;4.36;100.00;97998.38;4999577;28;20120;-79
2023/01/12 07:22:46;;;;;;;1.75;1.23;;;;;;;4.33;100.00;97993.16;5015987;28;20124;-78
2023/01/12 07:25:12;;;;;;;1.23;0.65;;;;;;;4.33;100.00;97993.16;5015597;28;20029;-78
2023/01/12 07:27:38;;;;;;;1.13;0.93;;;;;;;4.40;100.00;97996.50;5016000;28;20029;-76
2023/01/12 07:30:03;;;;;;;5.72;1.23;;;;;;;4.46;100.00;98001.63;5015477;28;20496;-78
2023/01/12 07:32:29;;;;;;;1.05;1.00;;;;;;;4.48;100.00;97992.69;5015678;28;20022;-76
2023/01/12 07:34:55;;;;;;;1.38;0.98;;;;;;;4.36;100.00;97982.47;4999028;28;20382;-78
2023/01/12 07:37:20;;;;;;;0.85;0.77;;;;;;;4.46;100.00;97991.03;4999024;28;20120;-78
2023/01/12 07:39:46;;;;;;;0.38;0.38;;;;;;;4.32;100.00;97992.28;4999255;28;20413;-77
2023/01/12 07:42:23;;;;;;;1.00;0.95;;;;;;;4.26;100.00;97970.44;4999083;28;20033;-77
2023/01/12 07:44:49;;;;;;;1.00;0.70;;;;;;;4.39;100.00;97982.38;5016848;28;20064;-78
2023/01/12 07:47:14;;;;;;;0.68;0.45;;;;;;;4.48;100.00;97982.09;4998811;28;20072;-78
2023/01/12 07:49:40;;;;;;;3.25;1.10;;;;;;;4.38;100.00;97955.03;4999018;28;20049;-78
2023/01/12 07:52:06;;;;;;;26.20;1.75;;;;;;;4.47;100.00;97961.81;4998989;28;20053;-78
2023/01/12 07:54:36;;;;;;;0.80;0.80;;;;;;;4.14;100.00;97934.63;4998786;28;20033;-78
2023/01/12 07:57:02;;;;;;;0.47;0.38;;;;;;;4.21;100.00;97951.19;5015011;28;20400;-77
2023/01/12 07:59:27;;;;;;;6.10;1.17;;;;;;;4.30;100.00;97966.78;4998624;28;20040;-78
2023/01/12 08:01:54;;;;;;;0.52;0.52;;;;;;;4.39;100.00;97971.78;5015205;28;20024;-79
2023/01/12 08:04:20;;;;;;;0.22;0.22;;;;;;;4.24;100.00;97964.31;5014671;28;20036;-77
2023/01/12 08:06:47;;;;;;;0.40;0.40;;;;;;;4.36;100.00;97978.06;4998431;28;20033;-76
2023/01/12 08:09:12;;;;;;;0.73;0.73;;;;;;;4.38;100.00;97983.28;4998373;28;20481;-78
2023/01/12 08:11:38;;;;;;;0.22;0.22;;;;;;;4.28;100.00;97963.28;5014882;28;20035;-79
2023/01/12 08:14:04;;;;;;;0.50;0.45;;;;;;;4.34;100.00;97977.22;4998205;28;20025;-77
2023/01/12 08:16:39;;;;;;;0.30;0.30;;;;;;;4.46;100.00;97986.56;4998238;28;20485;-80
2023/01/12 08:19:16;;;;;;;1.45;1.35;;;;;;;4.42;100.00;97970.84;4998456;28;20036;-77
2023/01/12 08:21:45;;;;;;;1.48;1.38;;;;;;;4.50;100.00;97974.09;4998525;28;20080;-79
2023/01/12 08:24:16;;;;;;;0.70;0.70;;;;;;;4.66;100.00;97981.53;4998046;28;20029;-77
2023/01/12 08:26:43;;;;;;;0.82;0.82;;;;;;;4.57;100.00;97965.94;5013897;28;20401;-78
2023/01/12 08:29:28;;;;;;;3.03;2.05;;;;;;;4.47;100.00;97953.88;4998071;28;20114;-79
2023/01/12 08:31:58;;;;;;;0.68;0.68;;;;;;;4.36;100.00;97941.00;5015741;28;20108;-78
2023/01/12 08:34:30;;;;;;;1.80;1.23;;;;;;;4.19;100.00;97935.31;5014410;28;20103;-79
2023/01/12 08:36:58;;;;;;;0.57;0.57;;;;;;;4.22;100.00;97956.41;5014679;28;20479;-78
2023/01/12 08:39:24;;;;;;;1.67;1.55;;;;;;;4.27;100.00;97967.75;5014076;28;20048;-78
2023/01/12 08:41:50;;;;;;;1.45;1.25;;;;;;;4.01;100.00;97927.06;4997930;28;20021;-77
2023/01/12 08:44:15;;;;;;;1.70;1.40;;;;;;;4.11;100.00;97947.94;5014532;28;20029;-78
2023/01/12 08:46:48;;;;;;;4.05;2.67;;;;;;;4.12;100.00;97967.34;5014258;28;20062;-77
2023/01/12 08:49:15;;;;;;;3.22;2.72;;;;;;;4.28;100.00;97969.47;5014328;28;20046;-78
2023/01/12 08:51:41;;;;;;;7.65;3.40;;;;;;;4.38;100.00;97970.94;4993324;28;20033;-78
2023/01/12 08:54:08;;;;;;;2.35;2.20;;;;;;;4.56;100.00;97968.59;5003217;28;20026;-78
2023/01/12 08:56:34;;;;;;;2.05;1.42;;;;;;;4.59;100.00;97947.31;5009065;28;20033;-78
2023/01/12 08:59:00;;;;;;;0.80;0.80;;;;;;;4.31;100.00;97936.72;4996820;28;20045;-78
2023/01/12 09:01:26;;;;;;;5.53;2.78;;;;;;;4.21;100.00;97941.47;5009693;28;20029;-78
2023/01/12 09:03:52;;;;;;;5.97;3.88;;;;;;;4.20;100.00;97949.44;4986023;28;20515;-79
2023/01/12 09:06:20;;;;;;;0.98;0.98;;;;;;;4.15;100.00;97964.59;4986632;28;20021;-78
2023/01/12 09:08:46;;;;;;;0.65;0.65;;;;;;;3.96;100.00;97934.28;5008231;28;20021;-78
2023/01/12 09:11:14;;;;;;;1.58;1.40;;;;;;;4.14;100.00;97965.50;5005866;28;20408;-78
2023/01/12 09:13:40;;;;;;;3.55;2.50;;;;;;;4.01;100.00;97943.81;5002314;28;20025;-79
2023/01/12 09:16:07;;;;;;;22.42;2.15;;;;;;;4.03;100.00;97964.97;4980542;28;20028;-78
2023/01/12 09:18:32;;;;;;;1.42;1.33;;;;;;;4.10;100.00;97970.00;4982420;28;20469;-77
2023/01/12 09:21:09;;;;;;;1.98;1.83;;;;;;;4.09;100.00;97959.50;5007977;28;20136;-77
2023/01/12 09:23:35;;;;;;;2.75;2.50;;;;;;;3.97;100.00;97958.03;4989258;28;20029;-78
2023/01/12 09:26:21;;;;;;;1.50;1.40;;;;;;;3.90;100.00;97950.34;4980165;28;20022;-77
2023/01/12 09:28:47;;;;;;;0.57;0.57;;;;;;;3.88;100.00;97960.13;4994822;28;20033;-78
2023/01/12 09:31:15;;;;;;;0.88;0.88;;;;;;;3.75;100.00;97954.31;5005582;28;20036;-76
2023/01/12 09:33:43;;;;;;;0.50;0.50;;;;;;;3.66;100.00;97942.19;4994088;28;20124;-78
2023/01/12 09:36:09;;;;;;;0.45;0.45;;;;;;;3.91;100.00;97973.25;5000564;28;20401;-77
2023/01/12 09:38:36;;;;;;;0.30;0.30;;;;;;;3.82;100.00;97955.84;5002790;28;20030;-78
2023/01/12 09:41:09;;;;;;;0.25;0.25;;;;;;;3.87;100.00;97961.03;4985793;28;20108;-77
2023/01/12 09:49:21;;;;;;;0.80;0.80;;;;;;;4.08;100.00;97955.97;5000626;28;20421;-77
2023/01/12 09:51:56;;;;;;;1.50;1.13;;;;;;;4.12;100.00;97952.28;4983331;28;20507;-78
2023/01/12 09:54:22;;;;;;;0.20;0.20;;;;;;;4.07;100.00;97942.78;5002777;28;20056;-77
2023/01/12 09:57:12;;;;;;;0.68;0.68;;;;;;;4.28;100.00;97947.41;4986313;28;20116;-78
2023/01/12 09:59:53;;;;;;;1.08;1.08;;;;;;;4.32;100.00;97949.94;4960277;28;20111;-78
2023/01/12 10:02:18;;;;;;;1.38;1.27;;;;;;;4.32;100.00;97939.34;4998356;28;20030;-77
2023/01/12 10:04:46;;;;;;;31.00;5.40;;;;;;;4.35;100.00;97944.53;4979984;28;20084;-76
2023/01/12 10:07:14;;;;;;;3.45;2.20;;;;;;;4.32;100.00;97938.47;4999786;28;20042;-77
2023/01/12 10:09:40;;;;;;;3.72;2.78;;;;;;;4.38;100.00;97938.28;4977696;28;20417;-77
2023/01/12 10:12:24;;;;;;;5.47;2.63;;;;;;;4.31;100.00;97929.66;4980350;28;20025;-77
2023/01/12 10:15:15;;;;;;;4.65;2.47;;;;;;;4.23;100.00;97941.41;4974975;28;20045;-78
2023/01/12 10:18:19;;;;;;;0.47;0.47;;;;;;;4.13;100.00;97932.88;4982522;28;20069;-78
2023/01/12 10:20:44;;;;;;;4.15;1.58;;;;;;;4.10;100.00;97937.38;5014544;28;20049;-77
2023/01/12 10:23:17;;;;;;;5.75;4.03;;;;;;;4.02;100.00;97934.97;4986430;28;20432;-78
2023/01/12 10:25:48;;;;;;;2.42;2.20;;;;;;;4.15;100.00;97936.31;4982704;28;20029;-79
2023/01/12 10:28:24;;;;;;;2.35;2.15;;;;;;;4.07;100.00;97926.88;4983299;28;20649;-78
2023/01/12 10:30:50;;;;;;;1.20;1.20;;;;;;;4.20;100.00;97936.19;4985352;28;20382;-77
2023/01/12 10:33:21;;;;;;;3.85;1.70;;;;;;;4.28;100.00;97935.03;4986095;28;20046;-77
2023/01/12 10:35:56;;;;;;;5.60;2.03;;;;;;;4.32;100.00;97922.59;4982807;28;20053;-77
2023/01/12 10:38:38;;;;;;;1.33;1.23;;;;;;;4.56;100.00;97928.88;4977374;28;20108;-76
2023/01/12 10:41:15;;;;;;;3.13;1.90;;;;;;;4.53;100.00;97921.03;4972451;28;20033;-83
2023/01/12 10:43:43;;;;;;;3.15;0.63;;;;;;;4.63;100.00;97915.41;4996987;28;20048;-78
2023/01/12 10:46:16;;;;;;;1.75;1.20;;;;;;;4.60;100.00;97896.94;4999887;28;20034;-78
2023/01/12 10:48:50;;;;;;;0.85;0.82;;;;;;;4.78;100.00;97896.34;4980645;28;20500;-77
2023/01/12 10:51:29;;;;;;;0.38;0.38;;;;;;;4.68;100.00;97884.31;4999168;28;20123;-76
2023/01/12 10:54:01;;;;;;;0.98;0.98;;;;;;;4.77;100.00;97883.13;4986763;28;20074;-78
2023/01/12 10:56:35;;;;;;;1.10;1.02;;;;;;;4.73;100.00;97866.50;4982033;28;20144;-78
2023/01/12 10:59:01;;;;;;;4.88;4.32;;;;;;;4.59;100.00;97870.50;4982356;28;20041;-77
2023/01/12 11:01:42;;;;;;;3.13;2.80;;;;;;;4.66;100.00;97875.56;5013740;28;20090;-77
2023/01/12 11:04:13;;;;;;;0.68;0.68;;;;;;;4.61;100.00;97869.56;5000284;28;20390;-77
2023/01/12 11:06:42;;;;;;;1.75;1.45;;;;;;;4.65;100.00;97868.53;5001985;28;20040;-78
2023/01/12 11:09:17;;;;;;;1.08;0.98;;;;;;;4.57;100.00;97873.22;5001716;28;20037;-77
2023/01/12 11:11:43;;;;;;;0.38;0.38;;;;;;;4.66;100.00;97870.25;5007441;28;20036;-77
2023/01/12 11:14:23;;;;;;;1.85;0.85;;;;;;;4.68;100.00;97867.53;4989624;28;20025;-78
2023/01/12 11:16:51;;;;;;;1.17;0.68;;;;;;;4.65;100.00;97844.69;4987857;28;20512;-79
2023/01/12 11:19:28;;;;;;;0.65;0.65;;;;;;;4.96;100.00;97868.34;5006120;28;20034;-78
2023/01/12 11:22:04;;;;;;;0.45;0.45;;;;;;;5.04;100.00;97865.44;4991110;28;20030;-77
2023/01/12 11:24:29;;;;;;;1.20;1.10;;;;;;;5.13;100.00;97865.13;4990492;28;20037;-77
2023/01/12 11:26:59;;;;;;;0.63;0.63;;;;;;;5.10;100.00;97844.88;5004753;28;20575;-77
2023/01/12 11:29:47;;;;;;;0.65;0.65;;;;;;;5.10;100.00;97844.00;4987300;28;20519;-77
2023/01/12 11:32:23;;;;;;;4.93;0.82;;;;;;;4.96;100.00;97840.97;5018652;28;20457;-77
2023/01/12 11:35:26;;;;;;;1.08;0.98;;;;;;;4.92;100.00;97848.19;5004007;28;20025;-76
2023/01/12 11:37:54;;;;;;;0.52;0.52;;;;;;;4.96;100.00;97851.56;4943451;28;20497;-77
2023/01/12 11:40:36;;;;;;;0.50;0.50;;;;;;;4.96;100.00;97851.56;4998574;28;20128;-77
2023/01/12 11:46:16;;;;;;;0.50;0.50;;;;;;;5.00;100.00;97855.84;5012822;28;20095;-78
2023/01/12 11:48:48;;;;;;;1.02;0.93;;;;;;;4.96;100.00;97844.50;4995786;28;20033;-77
2023/01/12 11:51:14;;;;;;;0.65;0.65;;;;;;;5.03;100.00;97840.72;4998671;28;20544;-78
2023/01/12 11:53:40;;;;;;;0.32;0.32;;;;;;;5.03;100.00;97831.88;5009734;28;20062;-77
2023/01/12 11:56:34;;;;;;;0.52;0.52;;;;;;;4.96;100.00;97830.38;4993317;28;20022;-77
2023/01/12 11:59:02;;;;;;;0.80;0.80;;;;;;;4.80;100.00;97830.03;4993329;28;20458;-77
2023/01/12 12:01:31;;;;;;;1.65;1.15;;;;;;;4.89;100.00;97846.47;4993051;28;20033;-76
2023/01/12 12:04:00;;;;;;;1.85;1.27;;;;;;;4.97;100.00;97840.94;4978778;28;20026;-77
2023/01/12 12:06:35;;;;;;;10.02;1.50;;;;;;;4.85;100.00;97834.28;4998985;28;20571;-77
2023/01/12 12:09:35;;;;;;;0.75;0.75;;;;;;;4.93;100.00;97824.25;4993621;28;20496;-77
2023/01/12 12:12:17;;;;;;;1.45;1.35;;;;;;;4.87;100.00;97816.53;4992133;28;20026;-77
2023/01/12 12:15:03;;;;;;;1.77;0.85;;;;;;;5.04;100.00;97828.31;4992758;28;20087;-78
2023/01/12 12:18:00;;;;;;;0.88;0.75;;;;;;;5.21;100.00;97828.56;4993150;28;20493;-77
2023/01/12 12:20:31;;;;;;;0.40;0.40;;;;;;;5.07;100.00;97799.06;4958215;28;20048;-76
2023/01/12 12:23:40;;;;;;;0.82;0.82;;;;;;;4.91;100.00;97783.72;4996624;28;20101;-77